Terminal Aerodrome Forecast
Issued by NWS Charleston, WV

Current Version | Previous Version | Graphics & Text | Print | Product List | Glossary On
Versions: 1 2 3 4 5 6 7 8 9 10 11 12 13 14 15 16 17 18 19 20 21 22 23 24 25 26 27 28
000
FTUS41 KRLX 310547
TAFEKN
TAF
KEKN 310547Z 3106/0106 00000KT 1/2SM FG OVC002
     FM310900 00000KT 2SM BR BKN002
      TEMPO 3109/3111 3/4SM BR SCT002
     FM311200 00000KT P6SM BKN045
     FM311400 21007G15KT P6SM BKN040
      TEMPO 3114/3117 5SM SHRA
     FM312200 22005KT 3SM SHRA VCTS BKN035CB BKN080
     FM010200 VRB03KT 4SM SHRA BR BKN030=

USA.gov is the U.S. government's official web portal to all federal, state and local government web resources and services.